Sterlington, Louisiana
Current Conditions -  °F | °C
As of 2:55 PM on Saturday 25 Oct 2014 (Local Time) from KBQP Reporting Station
Clear Clear  
Wind Chill: 83°   Ceiling: Unl
Heat Index: 83°   Visibility: 10mi
Dew Point: 60°   Wind: 5mph
Humidity: 47%   Direction: 250°WSW
Pressure: 30.09"   Gusts: NA
Location:  32.7°N, 92.09°W
Report Text: KBQP 251955Z AUTO 25004KT 10SM CLR 28/16 A3009 RMK AO2 T02820158
Loading
Personal Weather Stations






























Interactive Weather Map
Tropical Storm Tracking
New forecast layout! Learn more

10-Day Weather Forecast

Advertisements
Track Severe Weather on mobile